createdAt,value
2023-08-06T00:00:45.481Z,47.92
2023-08-06T00:01:45.492Z,47.99
2023-08-06T00:02:45.579Z,47.93
2023-08-06T00:03:45.555Z,47.94
2023-08-06T00:04:45.628Z,47.88
2023-08-06T00:05:45.655Z,47.85
2023-08-06T00:06:45.713Z,47.86
2023-08-06T00:07:45.739Z,47.91
2023-08-06T00:08:45.808Z,47.85
2023-08-06T00:09:45.829Z,47.87
2023-08-06T00:10:45.912Z,47.87
2023-08-06T00:11:45.919Z,47.91
2023-08-06T00:12:45.949Z,47.91
2023-08-06T00:13:46.008Z,47.89
2023-08-06T00:14:46.075Z,47.90
2023-08-06T00:15:46.107Z,47.90
2023-08-06T00:16:46.184Z,47.92
2023-08-06T00:17:46.251Z,47.92
2023-08-06T00:18:46.241Z,47.91
2023-08-06T00:19:46.342Z,47.93
2023-08-06T00:20:46.338Z,47.96
2023-08-06T00:21:46.388Z,47.98
2023-08-06T00:22:46.430Z,47.98
2023-08-06T00:23:46.512Z,47.90
2023-08-06T00:24:46.524Z,47.93
2023-08-06T00:25:46.560Z,47.94
2023-08-06T00:26:46.609Z,47.93
2023-08-06T00:27:46.645Z,47.97
2023-08-06T00:28:46.753Z,47.94
2023-08-06T00:29:46.759Z,47.94
2023-08-06T00:30:46.794Z,47.95
2023-08-06T00:31:46.845Z,47.91
2023-08-06T00:32:46.909Z,47.92
2023-08-06T00:33:46.913Z,47.91
2023-08-06T00:34:46.959Z,47.95
2023-08-06T00:35:47.016Z,47.97
2023-08-06T00:36:47.054Z,47.94
2023-08-06T00:37:47.117Z,47.95
2023-08-06T00:38:47.157Z,47.99
2023-08-06T00:39:47.248Z,47.95
2023-08-06T00:40:47.268Z,47.99
2023-08-06T00:41:47.333Z,47.96
2023-08-06T00:42:47.334Z,47.97
2023-08-06T00:43:47.383Z,47.98
2023-08-06T00:44:47.471Z,47.96
2023-08-06T00:45:47.499Z,47.95
2023-08-06T00:46:47.582Z,47.94
2023-08-06T00:47:47.659Z,47.96
2023-08-06T00:48:47.668Z,47.97
2023-08-06T00:49:47.687Z,47.95
2023-08-06T00:50:47.773Z,47.97
2023-08-06T00:51:47.807Z,47.97
2023-08-06T00:52:47.863Z,47.99
2023-08-06T00:53:47.897Z,47.98
2023-08-06T00:54:47.963Z,47.98
2023-08-06T00:55:48.003Z,47.96
2023-08-06T00:56:48.065Z,47.98
2023-08-06T00:57:48.108Z,47.96
2023-08-06T00:58:48.142Z,47.95
2023-08-06T00:59:48.235Z,47.93
2023-08-06T01:00:48.285Z,47.93
2023-08-06T01:01:48.317Z,47.91
2023-08-06T01:02:48.407Z,47.90
2023-08-06T01:03:48.393Z,47.93
2023-08-06T01:04:48.426Z,47.90
2023-08-06T01:05:48.464Z,47.89
2023-08-06T01:06:48.527Z,47.91
2023-08-06T01:07:48.569Z,47.89
2023-08-06T01:08:48.600Z,47.90
2023-08-06T01:09:48.637Z,47.92
2023-08-06T01:10:48.681Z,47.89
2023-08-06T01:11:48.719Z,47.91
2023-08-06T01:12:48.768Z,47.91
2023-08-06T01:13:48.816Z,47.89
2023-08-06T01:14:48.863Z,47.90
2023-08-06T01:15:48.918Z,47.88
2023-08-06T01:16:48.954Z,47.89
2023-08-06T01:17:48.997Z,47.89
2023-08-06T01:18:49.032Z,47.89
2023-08-06T01:19:49.070Z,47.91
2023-08-06T01:20:49.133Z,47.88
2023-08-06T01:21:49.197Z,47.88
2023-08-06T01:22:49.232Z,47.92
2023-08-06T01:23:49.317Z,47.88
2023-08-06T01:24:49.324Z,47.93
2023-08-06T01:25:49.379Z,47.92
2023-08-06T01:26:49.441Z,47.96
2023-08-06T01:27:49.474Z,47.99
2023-08-06T01:28:49.529Z,47.95
2023-08-06T01:29:49.605Z,47.97
2023-08-06T01:30:49.667Z,47.95
2023-08-06T01:31:49.804Z,47.98
2023-08-06T01:32:49.887Z,48.02
2023-08-06T01:33:50.045Z,47.96
2023-08-06T01:34:49.842Z,47.97
2023-08-06T01:35:49.878Z,47.97
2023-08-06T01:36:49.972Z,47.98
2023-08-06T01:37:49.980Z,47.97
2023-08-06T01:38:50.034Z,47.96
2023-08-06T01:39:50.057Z,47.96
2023-08-06T01:40:50.123Z,47.99
2023-08-06T01:41:50.578Z,47.97
2023-08-06T01:42:50.186Z,47.98
2023-08-06T01:43:50.258Z,47.97
2023-08-06T01:44:50.294Z,47.97
2023-08-06T01:45:50.362Z,47.99
2023-08-06T01:46:50.381Z,47.95
2023-08-06T01:47:50.526Z,47.98
2023-08-06T01:48:50.450Z,47.95
2023-08-06T01:49:50.483Z,47.96
2023-08-06T01:50:50.539Z,47.97
2023-08-06T01:51:50.843Z,47.96
2023-08-06T01:52:50.652Z,47.97
2023-08-06T01:53:50.706Z,47.99
2023-08-06T01:54:50.727Z,47.97
2023-08-06T01:55:50.797Z,47.98
2023-08-06T01:56:50.829Z,47.96
2023-08-06T01:57:50.876Z,47.94
2023-08-06T01:58:51.048Z,47.97
2023-08-06T01:59:50.963Z,47.91
2023-08-06T02:00:51.008Z,47.92
2023-08-06T02:01:51.249Z,47.91
2023-08-06T02:02:51.147Z,47.90
2023-08-06T02:03:51.147Z,47.87
2023-08-06T02:04:51.253Z,47.84
2023-08-06T02:05:52.535Z,47.87
2023-08-06T02:06:51.465Z,47.84
2023-08-06T02:07:51.502Z,47.81
2023-08-06T02:08:51.553Z,47.80
2023-08-06T02:09:51.637Z,47.77
2023-08-06T02:10:51.645Z,47.69
2023-08-06T02:11:51.897Z,47.76
2023-08-06T02:12:51.728Z,47.76
2023-08-06T02:13:51.763Z,47.70
2023-08-06T02:14:51.818Z,47.69
2023-08-06T02:15:51.901Z,47.66
2023-08-06T02:16:51.935Z,47.68
2023-08-06T02:17:51.983Z,47.59
2023-08-06T02:18:51.974Z,47.57
2023-08-06T02:19:52.045Z,47.55
2023-08-06T02:20:52.188Z,47.53
2023-08-06T02:21:52.372Z,47.50
2023-08-06T02:22:52.200Z,47.47
2023-08-06T02:23:52.263Z,47.47
2023-08-06T02:24:52.275Z,47.44
2023-08-06T02:25:52.304Z,47.44
2023-08-06T02:26:52.621Z,47.43
2023-08-06T02:27:52.314Z,47.48
2023-08-06T02:28:52.303Z,47.44
2023-08-06T02:29:52.290Z,47.32
2023-08-06T02:30:52.307Z,47.33
2023-08-06T02:31:52.653Z,47.28
2023-08-06T02:32:52.313Z,47.27
2023-08-06T02:33:52.255Z,47.21
2023-08-06T02:34:52.252Z,47.15
2023-08-06T02:35:52.282Z,47.21
2023-08-06T02:36:52.310Z,47.12
2023-08-06T02:37:52.375Z,47.07
2023-08-06T02:38:52.388Z,46.98
2023-08-06T02:39:52.440Z,47.03
2023-08-06T02:40:52.478Z,47.07
2023-08-06T02:41:52.979Z,47.13
2023-08-06T02:42:52.570Z,47.10
2023-08-06T02:43:52.619Z,47.08
2023-08-06T02:44:52.644Z,47.09
2023-08-06T02:45:52.738Z,47.04
2023-08-06T02:46:52.758Z,46.97
2023-08-06T02:47:52.857Z,47.03
2023-08-06T02:48:52.841Z,47.05
2023-08-06T02:49:52.856Z,47.02
2023-08-06T02:50:52.931Z,47.05
2023-08-06T02:51:53.306Z,47.08
2023-08-06T02:52:53.030Z,47.12
2023-08-06T02:53:53.039Z,47.09
2023-08-06T02:54:53.115Z,47.09
2023-08-06T02:55:53.157Z,47.09
2023-08-06T02:56:53.197Z,47.05
2023-08-06T02:57:53.256Z,47.06
2023-08-06T02:58:53.266Z,46.98
2023-08-06T02:59:53.320Z,46.92
2023-08-06T03:00:53.394Z,46.90
2023-08-06T03:01:53.625Z,46.87
2023-08-06T03:02:53.520Z,46.85
2023-08-06T03:03:53.511Z,46.78
2023-08-06T03:04:53.590Z,46.75
2023-08-06T03:05:53.616Z,46.76
2023-08-06T03:06:53.686Z,46.79
2023-08-06T03:07:53.701Z,46.82
2023-08-06T03:08:53.755Z,46.84
2023-08-06T03:09:53.795Z,46.84
2023-08-06T03:10:53.855Z,46.77
2023-08-06T03:11:54.094Z,46.74
2023-08-06T03:12:53.950Z,46.74
2023-08-06T03:13:54.025Z,46.76
2023-08-06T03:14:54.055Z,46.69
2023-08-06T03:15:54.096Z,46.62
2023-08-06T03:16:54.156Z,46.64
2023-08-06T03:17:54.217Z,46.52
2023-08-06T03:18:54.272Z,46.45
2023-08-06T03:19:54.298Z,46.59
2023-08-06T03:20:54.357Z,46.41
2023-08-06T03:21:54.462Z,46.37
2023-08-06T03:22:54.493Z,46.35
2023-08-06T03:23:54.468Z,46.38
2023-08-06T03:24:54.529Z,46.28
2023-08-06T03:25:54.563Z,46.32
2023-08-06T03:26:54.607Z,46.18
2023-08-06T03:27:54.659Z,46.23
2023-08-06T03:28:54.709Z,46.20
2023-08-06T03:29:54.752Z,46.17
2023-08-06T03:30:54.830Z,46.15
2023-08-06T03:31:54.873Z,46.09
2023-08-06T03:32:54.918Z,46.18
2023-08-06T03:33:54.955Z,46.08
2023-08-06T03:34:54.977Z,46.12
2023-08-06T03:35:55.047Z,46.06
2023-08-06T03:36:55.067Z,46.02
2023-08-06T03:37:55.136Z,46.09
2023-08-06T03:38:55.207Z,46.23
2023-08-06T03:39:55.226Z,46.08
2023-08-06T03:40:55.292Z,46.03
2023-08-06T03:41:55.358Z,45.99
2023-08-06T03:42:55.384Z,46.09
2023-08-06T03:43:55.465Z,46.02
2023-08-06T03:44:55.472Z,46.05
2023-08-06T03:45:55.581Z,46.07
2023-08-06T03:46:55.720Z,46.08
2023-08-06T03:47:55.678Z,46.15
2023-08-06T03:48:55.687Z,46.01
2023-08-06T03:49:55.761Z,46.04
2023-08-06T03:50:55.799Z,45.95
2023-08-06T03:51:55.846Z,45.96
2023-08-06T03:52:55.911Z,45.93
2023-08-06T03:53:55.952Z,45.99
2023-08-06T03:54:56.019Z,45.94
2023-08-06T03:55:56.057Z,45.91
2023-08-06T03:56:56.115Z,45.97
2023-08-06T03:57:56.164Z,45.90
2023-08-06T03:58:56.259Z,45.89
2023-08-06T03:59:56.275Z,45.92
2023-08-06T04:00:56.330Z,45.95
2023-08-06T04:01:56.400Z,45.87
2023-08-06T04:02:56.483Z,45.92
2023-08-06T04:03:56.529Z,45.88
2023-08-06T04:04:56.543Z,45.88
2023-08-06T04:05:56.580Z,45.87
2023-08-06T04:06:56.655Z,45.99
2023-08-06T04:07:56.719Z,45.86
2023-08-06T04:08:56.741Z,45.90
2023-08-06T04:09:56.792Z,45.86
2023-08-06T04:10:56.868Z,45.85
2023-08-06T04:11:56.898Z,45.86
2023-08-06T04:12:56.980Z,45.80
2023-08-06T04:13:57.037Z,45.87
2023-08-06T04:14:57.099Z,45.73
2023-08-06T04:15:57.135Z,45.72
2023-08-06T04:16:57.194Z,45.75
2023-08-06T04:17:57.258Z,45.69
2023-08-06T04:18:57.322Z,45.58
2023-08-06T04:19:57.350Z,45.61
2023-08-06T04:20:57.389Z,45.56
2023-08-06T04:21:57.483Z,45.53
2023-08-06T04:22:57.512Z,45.51
2023-08-06T04:23:57.596Z,45.44
2023-08-06T04:24:57.640Z,45.51
2023-08-06T04:25:57.702Z,45.40
2023-08-06T04:26:57.755Z,45.43
2023-08-06T04:27:57.827Z,45.42
2023-08-06T04:28:57.882Z,45.33
2023-08-06T04:29:57.936Z,45.36
2023-08-06T04:30:58.010Z,45.31
2023-08-06T04:31:58.036Z,45.41
2023-08-06T04:32:58.127Z,45.33
2023-08-06T04:33:58.176Z,45.33
2023-08-06T04:34:58.190Z,45.32
2023-08-06T04:35:58.261Z,45.34
2023-08-06T04:36:58.330Z,45.46
2023-08-06T04:37:58.398Z,45.44
2023-08-06T04:38:58.445Z,45.40
2023-08-06T04:39:58.543Z,45.41
2023-08-06T04:40:58.552Z,45.40
2023-08-06T04:41:59.197Z,45.40
2023-08-06T04:42:58.638Z,45.35
2023-08-06T04:43:58.688Z,45.27
2023-08-06T04:44:58.743Z,45.29
2023-08-06T04:45:58.880Z,45.27
2023-08-06T04:46:58.878Z,45.30
2023-08-06T04:47:58.952Z,45.33
2023-08-06T04:48:58.965Z,45.24
2023-08-06T04:49:59.055Z,45.19
2023-08-06T04:50:59.096Z,45.15
2023-08-06T04:51:59.161Z,45.14
2023-08-06T04:52:59.218Z,45.13
2023-08-06T04:53:59.266Z,45.08
2023-08-06T04:54:59.310Z,45.09
2023-08-06T04:55:59.356Z,45.08
2023-08-06T04:56:59.400Z,45.09
2023-08-06T04:57:59.435Z,45.06
2023-08-06T04:58:59.486Z,45.03
2023-08-06T04:59:59.558Z,44.95
2023-08-06T05:00:59.617Z,45.01
2023-08-06T05:01:59.659Z,45.03
2023-08-06T05:02:59.723Z,44.91
2023-08-06T05:03:59.790Z,44.89
2023-08-06T05:04:59.867Z,44.93
2023-08-06T05:05:59.838Z,44.94
2023-08-06T05:06:59.880Z,44.87
2023-08-06T05:07:59.942Z,44.92
2023-08-06T05:09:00.019Z,44.91
2023-08-06T05:10:00.060Z,44.90
2023-08-06T05:11:00.069Z,44.90
2023-08-06T05:12:00.155Z,44.73
2023-08-06T05:13:00.210Z,44.79
2023-08-06T05:14:00.226Z,44.75
2023-08-06T05:15:00.305Z,44.82
2023-08-06T05:16:00.331Z,44.76
2023-08-06T05:17:00.396Z,44.76
2023-08-06T05:18:00.463Z,44.78
2023-08-06T05:19:00.430Z,44.84
2023-08-06T05:20:00.497Z,44.77
2023-08-06T05:21:00.544Z,44.73
2023-08-06T05:22:00.574Z,44.76
2023-08-06T05:23:00.633Z,44.71
2023-08-06T05:24:00.684Z,44.74
2023-08-06T05:25:00.723Z,44.75
2023-08-06T05:26:00.790Z,44.72
2023-08-06T05:27:01.765Z,44.75
2023-08-06T05:28:00.855Z,44.74
2023-08-06T05:29:00.868Z,44.65
2023-08-06T05:30:00.920Z,44.54
2023-08-06T05:31:01.910Z,44.41
2023-08-06T05:32:00.997Z,44.43
2023-08-06T05:33:01.016Z,44.37
2023-08-06T05:34:01.021Z,44.30
2023-08-06T05:35:01.062Z,44.33
2023-08-06T05:36:01.092Z,44.28
2023-08-06T05:37:01.118Z,44.33
2023-08-06T05:38:01.124Z,44.26
2023-08-06T05:39:01.149Z,44.20
2023-08-06T05:40:01.213Z,44.29
2023-08-06T05:41:01.178Z,44.30
2023-08-06T05:42:01.223Z,44.28
2023-08-06T05:43:01.234Z,44.24
2023-08-06T05:44:04.253Z,44.29
2023-08-06T05:45:01.303Z,44.26
2023-08-06T05:46:01.297Z,44.20
2023-08-06T05:47:01.270Z,44.18
2023-08-06T05:48:01.230Z,44.21
2023-08-06T05:49:01.221Z,44.25
2023-08-06T05:50:01.248Z,44.18
2023-08-06T05:51:01.217Z,44.09
2023-08-06T05:52:01.197Z,44.10
2023-08-06T05:53:02.246Z,44.10
2023-08-06T05:54:01.265Z,44.04
2023-08-06T05:55:01.203Z,43.99
2023-08-06T05:56:01.209Z,44.00
2023-08-06T05:57:01.185Z,44.03
2023-08-06T05:58:01.174Z,43.99
2023-08-06T05:59:01.179Z,44.03
2023-08-06T06:00:01.177Z,44.07
2023-08-06T06:01:01.171Z,44.11
2023-08-06T06:02:01.121Z,44.08
2023-08-06T06:03:01.217Z,44.14
2023-08-06T06:04:01.194Z,44.14
2023-08-06T06:05:01.149Z,44.12
2023-08-06T06:06:01.157Z,44.15
2023-08-06T06:07:01.109Z,44.11
2023-08-06T06:08:01.118Z,44.11
2023-08-06T06:09:01.136Z,44.11
2023-08-06T06:10:01.114Z,44.15
2023-08-06T06:11:01.096Z,44.13
2023-08-06T06:12:01.079Z,44.08
2023-08-06T06:13:01.078Z,43.96
2023-08-06T06:14:01.106Z,43.99
2023-08-06T06:15:01.086Z,44.10
2023-08-06T06:16:01.111Z,44.13
2023-08-06T06:17:01.033Z,44.18
2023-08-06T06:18:01.074Z,44.16
2023-08-06T06:19:01.048Z,44.07
2023-08-06T06:20:01.021Z,44.09
2023-08-06T06:21:01.012Z,44.10
2023-08-06T06:22:01.021Z,44.09
2023-08-06T06:23:01.003Z,44.07
2023-08-06T06:24:01.001Z,44.06
2023-08-06T06:25:00.988Z,43.95
2023-08-06T06:26:00.991Z,43.90
2023-08-06T06:27:00.978Z,43.90
2023-08-06T06:28:00.957Z,43.93
2023-08-06T06:29:00.962Z,43.91
2023-08-06T06:30:00.960Z,43.81
2023-08-06T06:31:00.997Z,43.84
2023-08-06T06:32:00.936Z,43.83
2023-08-06T06:33:01.025Z,43.80
2023-08-06T06:34:00.937Z,43.77
2023-08-06T06:35:00.946Z,43.73
2023-08-06T06:36:00.924Z,43.70
2023-08-06T06:37:00.926Z,43.60
2023-08-06T06:38:00.909Z,43.53
2023-08-06T06:39:00.958Z,43.53
2023-08-06T06:40:00.880Z,43.52
2023-08-06T06:41:00.920Z,43.57
2023-08-06T06:42:00.894Z,43.49
2023-08-06T06:43:00.879Z,43.47
2023-08-06T06:44:00.887Z,43.43
2023-08-06T06:45:00.910Z,43.41
2023-08-06T06:46:01.043Z,43.35
2023-08-06T06:47:01.025Z,43.29
2023-08-06T06:48:01.111Z,43.21
2023-08-06T06:49:01.121Z,43.22
2023-08-06T06:50:01.168Z,43.16
2023-08-06T06:51:01.212Z,43.16
2023-08-06T06:52:01.269Z,43.13
2023-08-06T06:53:01.313Z,43.14
2023-08-06T06:54:01.353Z,43.12
2023-08-06T06:55:01.369Z,43.06
2023-08-06T06:56:01.420Z,43.07
2023-08-06T06:57:01.445Z,43.10
2023-08-06T06:58:01.491Z,43.05
2023-08-06T06:59:01.592Z,42.97
2023-08-06T07:00:01.773Z,43.01
2023-08-06T07:01:01.587Z,42.96
2023-08-06T07:02:01.868Z,42.91
2023-08-06T07:03:01.669Z,42.86
2023-08-06T07:04:01.685Z,42.85
2023-08-06T07:05:01.660Z,42.84
2023-08-06T07:06:01.688Z,42.80
2023-08-06T07:07:01.676Z,42.73
2023-08-06T07:08:01.689Z,42.74
2023-08-06T07:09:01.724Z,42.73
2023-08-06T07:10:01.725Z,42.77
2023-08-06T07:11:01.722Z,42.78
2023-08-06T07:12:01.764Z,42.76
2023-08-06T07:13:01.805Z,42.79
2023-08-06T07:14:01.960Z,42.80
2023-08-06T07:15:01.991Z,42.73
2023-08-06T07:16:01.956Z,42.72
2023-08-06T07:17:02.059Z,42.70
2023-08-06T07:18:02.032Z,42.62
2023-08-06T07:19:01.949Z,42.67
2023-08-06T07:20:01.971Z,42.69
2023-08-06T07:21:02.006Z,42.63
2023-08-06T07:22:02.287Z,42.66
2023-08-06T07:23:02.037Z,42.58
2023-08-06T07:24:02.051Z,42.60
2023-08-06T07:25:02.096Z,42.50
2023-08-06T07:26:02.120Z,42.48
2023-08-06T07:27:02.158Z,42.42
2023-08-06T07:28:02.178Z,42.27
2023-08-06T07:29:02.216Z,42.26
2023-08-06T07:30:02.264Z,42.29
2023-08-06T07:31:02.340Z,42.30
2023-08-06T07:32:02.310Z,42.23
2023-08-06T07:33:02.396Z,42.17
2023-08-06T07:34:02.395Z,42.19
2023-08-06T07:35:02.438Z,42.18
2023-08-06T07:36:02.489Z,42.17
2023-08-06T07:37:02.571Z,42.10
2023-08-06T07:38:02.568Z,42.07
2023-08-06T07:39:02.753Z,42.00
2023-08-06T07:40:02.658Z,41.85
2023-08-06T07:41:02.695Z,41.92
2023-08-06T07:42:02.769Z,42.02
2023-08-06T07:43:02.830Z,41.77
2023-08-06T07:44:02.839Z,41.88
2023-08-06T07:45:02.908Z,41.80
2023-08-06T07:46:02.961Z,41.38
2023-08-06T07:47:03.045Z,41.62
2023-08-06T07:48:03.082Z,41.82
2023-08-06T07:49:03.121Z,41.77
2023-08-06T07:50:03.150Z,41.55
2023-08-06T07:51:03.301Z,41.64
2023-08-06T07:52:03.252Z,41.29
2023-08-06T07:53:03.303Z,41.55
2023-08-06T07:54:03.403Z,41.40
2023-08-06T07:55:03.434Z,41.46
2023-08-06T07:56:03.488Z,41.60
2023-08-06T07:57:03.527Z,41.63
2023-08-06T07:58:03.605Z,41.84
2023-08-06T07:59:03.643Z,41.85
2023-08-06T08:00:03.701Z,41.83
2023-08-06T08:01:05.748Z,41.84
2023-08-06T08:02:03.828Z,41.96
2023-08-06T08:03:03.960Z,41.96
2023-08-06T08:04:03.925Z,42.00
2023-08-06T08:05:03.969Z,42.00
2023-08-06T08:06:04.043Z,42.04
2023-08-06T08:07:04.082Z,42.05
2023-08-06T08:08:04.142Z,42.04
2023-08-06T08:09:04.212Z,42.09
2023-08-06T08:10:04.301Z,42.03
2023-08-06T08:11:04.366Z,42.07
2023-08-06T08:12:04.408Z,42.17
2023-08-06T08:13:04.493Z,42.15
2023-08-06T08:14:04.625Z,42.15
2023-08-06T08:15:04.597Z,42.24
2023-08-06T08:16:04.651Z,42.21
2023-08-06T08:17:04.715Z,42.21
2023-08-06T08:18:04.845Z,42.25
2023-08-06T08:19:04.856Z,42.25
2023-08-06T08:20:04.898Z,42.31
2023-08-06T08:21:04.962Z,42.30
2023-08-06T08:22:05.032Z,42.33
2023-08-06T08:23:05.099Z,42.30
2023-08-06T08:24:05.164Z,42.30
2023-08-06T08:25:05.234Z,42.34
2023-08-06T08:26:05.264Z,42.34
2023-08-06T08:27:05.305Z,42.32
2023-08-06T08:28:05.346Z,42.32
2023-08-06T08:29:05.401Z,42.29
2023-08-06T08:30:05.470Z,42.34
2023-08-06T08:31:05.531Z,42.46
2023-08-06T08:32:05.564Z,42.51
2023-08-06T08:33:05.631Z,42.50
2023-08-06T08:34:05.672Z,42.54
2023-08-06T08:35:05.719Z,42.52
2023-08-06T08:36:05.879Z,42.59
2023-08-06T08:37:05.796Z,42.65
2023-08-06T08:38:05.843Z,42.80
2023-08-06T08:39:05.854Z,42.93
2023-08-06T08:40:05.875Z,43.03
2023-08-06T08:41:05.849Z,43.05
2023-08-06T08:42:05.856Z,43.28
2023-08-06T08:43:05.911Z,43.33
2023-08-06T08:44:05.890Z,43.40
2023-08-06T08:45:05.929Z,43.59
2023-08-06T08:46:06.153Z,43.73
2023-08-06T08:47:05.998Z,43.77
2023-08-06T08:48:06.010Z,43.97
2023-08-06T08:49:06.079Z,43.97
2023-08-06T08:50:06.115Z,44.10
2023-08-06T08:51:06.121Z,44.21
2023-08-06T08:52:06.146Z,44.29
2023-08-06T08:53:06.158Z,44.31
2023-08-06T08:54:06.185Z,44.27
2023-08-06T08:55:06.217Z,44.37
2023-08-06T08:56:06.268Z,44.51
2023-08-06T08:57:06.305Z,44.44
2023-08-06T08:58:06.363Z,44.26
2023-08-06T08:59:06.430Z,44.16
2023-08-06T09:00:06.533Z,44.06
2023-08-06T09:01:06.533Z,44.23
2023-08-06T09:02:06.723Z,43.96
2023-08-06T09:03:06.732Z,44.02
2023-08-06T09:04:06.723Z,43.96
2023-08-06T09:05:06.808Z,43.96
2023-08-06T09:06:06.857Z,44.01
2023-08-06T09:07:06.902Z,43.97
2023-08-06T09:08:06.961Z,43.96
2023-08-06T09:09:07.034Z,43.98
2023-08-06T09:10:07.103Z,43.93
2023-08-06T09:11:07.192Z,44.08
2023-08-06T09:12:07.200Z,44.26
2023-08-06T09:13:07.286Z,43.99
2023-08-06T09:14:07.355Z,43.72
2023-08-06T09:15:07.422Z,43.46
2023-08-06T09:16:07.537Z,43.40
2023-08-06T09:17:07.526Z,43.20
2023-08-06T09:18:07.616Z,43.21
2023-08-06T09:19:07.663Z,42.91
2023-08-06T09:20:07.698Z,43.12
2023-08-06T09:21:07.741Z,42.86
2023-08-06T09:22:07.843Z,42.74
2023-08-06T09:23:07.861Z,42.72
2023-08-06T09:24:07.938Z,42.49
2023-08-06T09:25:07.990Z,42.49
2023-08-06T09:26:08.049Z,42.41
2023-08-06T09:27:08.091Z,42.38
2023-08-06T09:28:08.143Z,42.16
2023-08-06T09:29:08.210Z,42.06
2023-08-06T09:30:08.327Z,42.30
2023-08-06T09:31:08.302Z,42.17
2023-08-06T09:32:08.407Z,42.09
2023-08-06T09:33:08.455Z,42.15
2023-08-06T09:34:08.472Z,41.98
2023-08-06T09:35:08.516Z,42.00
2023-08-06T09:36:08.570Z,41.96
2023-08-06T09:37:08.639Z,42.05
2023-08-06T09:38:08.692Z,41.91
2023-08-06T09:39:08.731Z,41.90
2023-08-06T09:40:08.807Z,41.64
2023-08-06T09:41:08.841Z,41.69
2023-08-06T09:42:08.866Z,41.58
2023-08-06T09:43:08.925Z,41.57
2023-08-06T09:44:08.983Z,41.51
2023-08-06T09:45:09.009Z,41.35
2023-08-06T09:46:09.079Z,41.50
2023-08-06T09:47:09.098Z,41.33
2023-08-06T09:48:09.259Z,41.18
2023-08-06T09:49:09.254Z,41.25
2023-08-06T09:50:09.241Z,41.07
2023-08-06T09:51:09.274Z,40.67
2023-08-06T09:52:09.343Z,40.40
2023-08-06T09:53:09.433Z,40.55
2023-08-06T09:54:17.208Z,40.57
2023-08-06T09:55:10.400Z,40.29
2023-08-06T09:56:09.439Z,40.31
2023-08-06T09:57:09.372Z,39.92
2023-08-06T09:58:09.409Z,39.83
2023-08-06T09:59:09.378Z,39.84
2023-08-06T10:00:09.352Z,39.69
2023-08-06T10:01:09.382Z,39.32
2023-08-06T10:02:09.441Z,39.55
2023-08-06T10:03:09.476Z,39.39
2023-08-06T10:04:22.873Z,39.56
2023-08-06T10:05:10.319Z,39.25
2023-08-06T10:06:09.311Z,39.17
2023-08-06T10:07:09.312Z,39.05
2023-08-06T10:08:09.306Z,39.23
2023-08-06T10:09:09.292Z,39.04
2023-08-06T10:10:09.274Z,38.96
2023-08-06T10:11:09.278Z,38.51
2023-08-06T10:12:09.270Z,38.90
2023-08-06T10:13:09.271Z,38.96
2023-08-06T10:14:09.295Z,38.96
2023-08-06T10:15:09.260Z,38.55
2023-08-06T10:16:09.493Z,38.64
2023-08-06T10:17:09.256Z,38.69
2023-08-06T10:18:09.312Z,38.57
2023-08-06T10:19:09.227Z,38.44
2023-08-06T10:20:09.253Z,38.39
2023-08-06T10:21:09.206Z,38.44
2023-08-06T10:22:09.205Z,38.21
2023-08-06T10:23:09.189Z,38.06
2023-08-06T10:24:09.189Z,38.30
2023-08-06T10:25:09.240Z,38.14
2023-08-06T10:26:09.266Z,37.80
2023-08-06T10:27:09.282Z,38.00
2023-08-06T10:28:09.305Z,38.24
2023-08-06T10:29:09.329Z,38.02
2023-08-06T10:30:09.355Z,38.01
2023-08-06T10:31:09.413Z,38.28
2023-08-06T10:32:09.400Z,38.37
2023-08-06T10:33:09.444Z,38.32
2023-08-06T10:34:09.459Z,38.39
2023-08-06T10:35:09.482Z,38.36
2023-08-06T10:36:09.498Z,38.39
2023-08-06T10:37:09.518Z,38.44
2023-08-06T10:38:09.564Z,38.57
2023-08-06T10:39:16.436Z,38.57
2023-08-06T10:40:10.575Z,38.61
2023-08-06T10:41:09.546Z,38.65
2023-08-06T10:42:09.561Z,38.76
2023-08-06T10:43:09.556Z,38.77
2023-08-06T10:44:09.605Z,38.78
2023-08-06T10:45:09.569Z,38.77
2023-08-06T10:46:09.535Z,38.85
2023-08-06T10:47:09.524Z,38.71
2023-08-06T10:48:09.575Z,38.84
2023-08-06T10:49:09.543Z,38.77
2023-08-06T10:50:09.523Z,38.72
2023-08-06T10:51:09.500Z,38.63
2023-08-06T10:52:09.470Z,38.56
2023-08-06T10:53:09.520Z,38.65
2023-08-06T10:54:09.480Z,38.71
2023-08-06T10:55:09.471Z,38.70
2023-08-06T10:56:09.464Z,38.79
2023-08-06T10:57:09.454Z,38.84
2023-08-06T10:58:09.453Z,38.75
2023-08-06T10:59:09.452Z,38.84
2023-08-06T11:00:20.476Z,38.82
2023-08-06T11:01:10.495Z,38.77
2023-08-06T11:02:09.474Z,38.85
2023-08-06T11:03:09.497Z,38.87
2023-08-06T11:04:09.384Z,38.90
2023-08-06T11:05:09.398Z,38.95
2023-08-06T11:06:09.414Z,38.93
2023-08-06T11:07:09.460Z,38.91
2023-08-06T11:08:09.398Z,39.03
2023-08-06T11:09:09.373Z,38.89
2023-08-06T11:10:09.366Z,38.77
2023-08-06T11:11:09.393Z,38.80
2023-08-06T11:12:09.382Z,38.81
2023-08-06T11:13:09.344Z,38.61
2023-08-06T11:14:09.328Z,38.50
2023-08-06T11:15:09.345Z,38.39
2023-08-06T11:16:09.337Z,38.48
2023-08-06T11:17:09.332Z,38.45
2023-08-06T11:18:09.325Z,38.38
2023-08-06T11:19:09.335Z,38.40
2023-08-06T11:20:09.311Z,38.35
2023-08-06T11:21:09.286Z,38.14
2023-08-06T11:22:09.325Z,38.27
2023-08-06T11:23:09.301Z,38.12
2023-08-06T11:24:09.277Z,38.07
2023-08-06T11:25:09.259Z,38.06
2023-08-06T11:26:09.290Z,38.17
2023-08-06T11:27:09.286Z,38.10
2023-08-06T11:28:09.325Z,38.24
2023-08-06T11:29:09.355Z,38.34
2023-08-06T11:30:09.369Z,38.15
2023-08-06T11:31:09.442Z,38.11
2023-08-06T11:32:09.509Z,38.16
2023-08-06T11:33:09.413Z,37.94
2023-08-06T11:34:09.448Z,38.11
2023-08-06T11:35:09.471Z,37.99
2023-08-06T11:36:09.488Z,37.86
2023-08-06T11:37:09.555Z,37.93
2023-08-06T11:38:09.635Z,37.89
2023-08-06T11:39:09.593Z,37.93
2023-08-06T11:40:09.620Z,37.90
2023-08-06T11:41:09.621Z,37.91
2023-08-06T11:42:09.693Z,38.00
2023-08-06T11:43:09.655Z,37.88
2023-08-06T11:44:09.676Z,37.90
2023-08-06T11:45:09.707Z,38.07
2023-08-06T11:46:09.910Z,37.73
2023-08-06T11:47:09.787Z,37.85
2023-08-06T11:48:09.828Z,37.75
2023-08-06T11:49:09.825Z,37.95
2023-08-06T11:50:09.961Z,38.04
2023-08-06T11:51:09.865Z,38.02
2023-08-06T11:52:09.890Z,38.22
2023-08-06T11:53:09.957Z,38.35
2023-08-06T11:54:09.985Z,38.43
2023-08-06T11:55:09.985Z,38.39
2023-08-06T11:56:10.026Z,38.48
2023-08-06T11:57:10.031Z,38.33
2023-08-06T11:58:10.099Z,38.32
2023-08-06T11:59:10.100Z,38.06
2023-08-06T12:00:10.230Z,38.27
2023-08-06T12:01:10.251Z,38.08
2023-08-06T12:02:10.234Z,38.09
2023-08-06T12:03:10.228Z,38.03
2023-08-06T12:04:10.285Z,37.94
2023-08-06T12:05:10.278Z,37.57
2023-08-06T12:06:10.296Z,37.64
2023-08-06T12:07:10.336Z,37.70
2023-08-06T12:08:10.354Z,37.40
2023-08-06T12:09:10.392Z,37.68
2023-08-06T12:10:10.443Z,37.48
2023-08-06T12:11:10.437Z,37.48
2023-08-06T12:12:10.460Z,37.44
2023-08-06T12:13:10.474Z,37.47
2023-08-06T12:14:10.504Z,37.25
2023-08-06T12:15:10.534Z,37.56
2023-08-06T12:16:10.582Z,37.21
2023-08-06T12:17:10.616Z,37.33
2023-08-06T12:18:10.613Z,37.40
2023-08-06T12:19:10.651Z,37.29
2023-08-06T12:20:10.664Z,37.44
2023-08-06T12:21:10.679Z,37.28
2023-08-06T12:22:10.710Z,37.10
2023-08-06T12:23:10.728Z,36.84
2023-08-06T12:24:10.746Z,36.99
2023-08-06T12:25:10.829Z,36.51
2023-08-06T12:26:10.773Z,36.60
2023-08-06T12:27:10.846Z,36.66
2023-08-06T12:28:10.883Z,36.84
2023-08-06T12:29:10.874Z,36.66
2023-08-06T12:30:10.908Z,36.77
2023-08-06T12:31:10.982Z,36.76
2023-08-06T12:32:10.949Z,36.68
2023-08-06T12:33:10.985Z,36.77
2023-08-06T12:34:10.987Z,36.73
2023-08-06T12:35:10.991Z,36.61
2023-08-06T12:36:11.025Z,36.73
2023-08-06T12:37:11.070Z,36.72
2023-08-06T12:38:11.078Z,36.66
2023-08-06T12:39:11.114Z,36.76
2023-08-06T12:40:33.408Z,36.51
2023-08-06T12:41:12.238Z,36.62
2023-08-06T12:42:11.325Z,36.49
2023-08-06T12:43:11.124Z,36.59
2023-08-06T12:44:11.116Z,36.35
2023-08-06T12:45:11.083Z,36.34
2023-08-06T12:46:11.115Z,36.59
2023-08-06T12:47:11.094Z,36.45
2023-08-06T12:48:11.077Z,36.26
2023-08-06T12:49:11.066Z,36.39
2023-08-06T12:50:11.074Z,36.39
2023-08-06T12:51:11.043Z,36.44
2023-08-06T12:52:11.058Z,36.07
2023-08-06T12:53:11.042Z,36.12